Pagina principale
METAR-TAF:

METAR-TAF

Aeroporti :

Aeroporto di Torino-Aeritalia

Torino, Italia

latitudine: 45-05-20N, longitudine: 007-36-20E, altezza: 288 m

Osservazione

Il bollettino è stato emesso 4 ore e 33 minuti fa, alle 15:50 UTC
Vento 2 kt da nord-est, variando fra nord e est
Temperature 12°C
Umidità 54%
Pressione 1027 hPa
Visibilità: 5000 m
Nubi sparse ad un'altezza di 3500 ft
foschia

METAR: LIMA 161550Z 04002KT 360V080 5000 BR SCT035 12/03 Q1027

Ora: 21:23 (20:23 UTC)


TAF: mancante

Osservazioni e previsioni meteorologiche di più di 4000 aeroporti (messaggi METAR e TAF).

Le stazioni disponibili sono rappresentate dai dischi gialli e rossi sulla carta.

Puntare il mouse per vedere il nome della stazione.

Clicca sopra per visualizzare le osservazioni e previsioni meteorologiche.

Per cambiare la mappa : fare clic sui pulsanti verdi con una croce nera per ingrandire, il pulsante verde con un trattino per diminuire, o sulla freccia verde per le mappe adiacenti.


METAR-TAF: